Time;durP1;ratioP1;P1;durP2;ratioP2;P2;SDS_P1;SDS_P2;PMS_P1;PMS_P2;Temp;Humidity;BMP_temperature;BMP_pressure;BME280_temperature;BME280_humidity;BME280_pressure;Samples;Min_cycle;Max_cycle;Signal;HPM_P1;HPM_P2
2023/04/12 00:01:39;;;;;;;1999.90;999.90;;;13.30;99.90;;;;;;5055953;28;20535;-79
2023/04/12 00:04:04;;;;;;;1999.90;999.90;;;13.30;99.90;;;;;;5055868;28;20086;-75
2023/04/12 00:06:33;;;;;;;1999.90;999.90;;;13.30;99.90;;;;;;5054771;28;20033;-79
2023/04/12 00:09:03;;;;;;;1999.90;999.90;;;13.30;99.90;;;;;;5055533;28;20078;-76
2023/04/12 00:11:30;;;;;;;1999.90;999.90;;;13.30;99.90;;;;;;5055851;28;20365;-74
2023/04/12 00:13:56;;;;;;;1999.90;999.90;;;13.30;99.90;;;;;;5055594;28;20070;-73
2023/04/12 00:16:23;;;;;;;1999.90;999.90;;;13.30;99.90;;;;;;5055504;28;20025;-74
2023/04/12 00:18:50;;;;;;;1999.90;999.90;;;13.30;99.90;;;;;;5055236;28;20419;-74
2023/04/12 00:21:18;;;;;;;1999.90;999.90;;;13.30;99.90;;;;;;5055526;28;20121;-73
2023/04/12 00:23:48;;;;;;;1999.90;999.90;;;13.40;99.90;;;;;;5054735;28;20483;-79
2023/04/12 00:26:14;;;;;;;1999.90;999.90;;;13.40;99.90;;;;;;5055251;28;20586;-74
2023/04/12 00:28:41;;;;;;;1999.90;999.90;;;13.40;99.90;;;;;;5064542;28;20105;-79
2023/04/12 00:31:07;;;;;;;1999.90;999.90;;;13.40;99.90;;;;;;5075463;28;20105;-80
2023/04/12 00:33:33;;;;;;;1999.90;999.90;;;13.40;99.90;;;;;;5075519;28;20032;-73
2023/04/12 00:35:59;;;;;;;1999.90;999.90;;;13.40;99.90;;;;;;5075519;28;20021;-73
2023/04/12 00:38:24;;;;;;;1999.90;999.90;;;13.40;99.90;;;;;;5072937;28;20099;-73
2023/04/12 00:40:51;;;;;;;1999.90;999.90;;;13.40;99.90;;;;;;5055285;28;20090;-73
2023/04/12 00:43:17;;;;;;;1999.90;999.90;;;13.40;99.90;;;;;;5053705;28;20021;-77
2023/04/12 00:45:44;;;;;;;1999.90;999.90;;;13.40;99.90;;;;;;5055466;28;20071;-74
2023/04/12 00:48:10;;;;;;;1999.90;999.90;;;13.40;99.90;;;;;;5055189;28;20025;-73
2023/04/12 00:50:36;;;;;;;1999.90;999.90;;;13.40;99.90;;;;;;5054669;28;20451;-74
2023/04/12 00:53:04;;;;;;;1999.90;999.90;;;13.40;99.90;;;;;;5054920;28;20029;-73
2023/04/12 00:55:30;;;;;;;1999.90;999.90;;;13.40;99.90;;;;;;5054695;28;20025;-79
2023/04/12 00:57:56;;;;;;;1999.90;999.90;;;13.40;99.90;;;;;;5054933;28;20415;-79
2023/04/12 01:00:22;;;;;;;1999.90;999.90;;;13.40;99.90;;;;;;5054714;28;20021;-78
2023/04/12 01:02:49;;;;;;;1999.90;999.90;;;13.40;99.90;;;;;;5053164;28;20029;-75
2023/04/12 01:05:22;;;;;;;1999.90;999.90;;;13.50;99.90;;;;;;5054601;28;20020;-78
2023/04/12 01:08:10;;;;;;;1999.90;999.90;;;13.50;99.90;;;;;;5054506;28;20025;-79
2023/04/12 01:10:52;;;;;;;1999.90;999.90;;;13.50;99.90;;;;;;5054571;28;20033;-80
2023/04/12 01:13:27;;;;;;;1999.90;999.90;;;13.50;99.90;;;;;;5054493;28;20500;-77
2023/04/12 01:16:01;;;;;;;1999.90;999.90;;;13.50;99.90;;;;;;5054601;28;20353;-77
2023/04/12 01:18:29;;;;;;;1999.90;999.90;;;13.50;99.90;;;;;;5052442;28;20519;-75
2023/04/12 01:21:07;;;;;;;1999.90;999.90;;;13.50;99.90;;;;;;5042929;28;20091;-78
2023/04/12 01:23:42;;;;;;;1999.90;999.90;;;13.50;99.90;;;;;;5049082;28;20036;-75
2023/04/12 01:26:35;;;;;;;1999.90;999.90;;;13.50;99.90;;;;;;5034138;28;20388;-79
2023/04/12 01:29:06;;;;;;;1999.90;999.90;;;13.50;99.90;;;;;;5061399;28;20490;-73
2023/04/12 01:31:35;;;;;;;1999.90;999.90;;;13.50;99.90;;;;;;5074225;28;20085;-74
2023/04/12 01:34:02;;;;;;;1999.90;999.90;;;13.40;99.90;;;;;;5074110;28;20069;-78
2023/04/12 01:36:29;;;;;;;1999.90;999.90;;;13.50;99.90;;;;;;5074586;28;20502;-73
2023/04/12 01:38:56;;;;;;;1999.90;999.90;;;13.50;99.90;;;;;;5058436;28;20517;-80
2023/04/12 01:41:22;;;;;;;1999.90;999.90;;;13.50;99.90;;;;;;5053991;28;20060;-78
2023/04/12 01:43:47;;;;;;;1999.90;999.90;;;13.50;99.90;;;;;;5053958;28;20052;-74
2023/04/12 01:46:21;;;;;;;1999.90;999.90;;;13.50;99.90;;;;;;5053913;28;20395;-79
2023/04/12 01:48:51;;;;;;;1999.90;999.90;;;13.50;99.90;;;;;;5053633;28;20051;-79
2023/04/12 01:51:49;;;;;;;1999.90;999.90;;;13.50;99.90;;;;;;5052354;28;20029;-78
2023/04/12 01:54:24;;;;;;;1999.90;999.90;;;13.50;99.90;;;;;;5053311;28;20752;-78
2023/04/12 01:56:56;;;;;;;1999.90;999.90;;;13.50;99.90;;;;;;5053727;28;20535;-73
2023/04/12 01:59:26;;;;;;;1999.90;999.90;;;13.50;99.90;;;;;;5054039;28;20029;-76
2023/04/12 02:01:52;;;;;;;1999.90;999.90;;;13.50;99.90;;;;;;5053887;28;20043;-79
2023/04/12 02:04:20;;;;;;;1999.90;999.90;;;13.50;99.90;;;;;;5053313;28;20033;-77
2023/04/12 02:06:46;;;;;;;1999.90;999.90;;;13.50;99.90;;;;;;5053466;28;20020;-78
2023/04/12 02:09:12;;;;;;;1999.90;999.90;;;13.50;99.90;;;;;;5053411;28;20028;-77
2023/04/12 02:11:37;;;;;;;1999.90;999.90;;;13.50;99.90;;;;;;5053606;28;20029;-80
2023/04/12 02:14:03;;;;;;;1999.90;999.90;;;13.50;99.90;;;;;;5053390;28;20422;-73
2023/04/12 02:16:31;;;;;;;1999.90;999.90;;;13.50;99.90;;;;;;5053397;28;20032;-79
2023/04/12 02:18:57;;;;;;;1999.90;999.90;;;13.50;99.90;;;;;;5053126;28;20079;-76
2023/04/12 02:21:23;;;;;;;1999.90;999.90;;;13.50;99.90;;;;;;5053356;28;20036;-75
2023/04/12 02:23:49;;;;;;;1999.90;999.90;;;13.50;99.90;;;;;;5053341;28;20029;-73
2023/04/12 02:26:15;;;;;;;1999.90;999.90;;;13.50;99.90;;;;;;5052447;28;20028;-78
2023/04/12 02:28:43;;;;;;;1999.90;999.90;;;13.50;99.90;;;;;;5052812;28;20082;-77
2023/04/12 02:31:08;;;;;;;1999.90;999.90;;;13.50;99.90;;;;;;5052934;28;20033;-80
2023/04/12 02:33:34;;;;;;;1999.90;999.90;;;13.50;99.90;;;;;;5053456;28;20021;-76
2023/04/12 02:36:03;;;;;;;1999.90;999.90;;;13.50;99.90;;;;;;5053373;28;20104;-76
2023/04/12 02:38:29;;;;;;;1999.90;999.90;;;13.50;99.90;;;;;;5053063;28;20032;-73
2023/04/12 02:40:55;;;;;;;1999.90;999.90;;;13.50;99.90;;;;;;5053160;28;20021;-73
2023/04/12 02:43:20;;;;;;;1999.90;999.90;;;13.50;99.90;;;;;;5052789;28;20021;-75
2023/04/12 02:45:47;;;;;;;1999.90;999.90;;;13.60;99.90;;;;;;5053159;28;20070;-74
2023/04/12 02:48:12;;;;;;;1999.90;999.90;;;13.50;99.90;;;;;;5052975;28;20059;-73
2023/04/12 02:50:39;;;;;;;1999.90;999.90;;;13.50;99.90;;;;;;5051709;28;20045;-79
2023/04/12 02:53:05;;;;;;;1999.90;999.90;;;13.50;99.90;;;;;;5052704;28;20021;-76
2023/04/12 02:55:31;;;;;;;1999.90;999.90;;;13.40;99.90;;;;;;5052768;28;20029;-73
2023/04/12 02:57:57;;;;;;;1999.90;999.90;;;13.30;99.90;;;;;;5052849;28;20031;-77
2023/04/12 03:00:23;;;;;;;1999.90;999.90;;;13.30;99.90;;;;;;5052952;28;20094;-73
2023/04/12 03:02:50;;;;;;;1999.90;999.90;;;13.20;99.90;;;;;;5053202;28;20033;-73
2023/04/12 03:05:16;;;;;;;1999.90;999.90;;;13.20;99.90;;;;;;5052876;28;20476;-77
2023/04/12 03:07:42;;;;;;;1999.90;999.90;;;13.20;99.90;;;;;;5052863;28;20025;-77
2023/04/12 03:10:10;;;;;;;1999.90;999.90;;;13.20;99.90;;;;;;5052575;28;20060;-78
2023/04/12 03:12:36;;;;;;;1999.90;999.90;;;13.20;99.90;;;;;;5052916;28;20025;-77
2023/04/12 03:15:03;;;;;;;1999.90;999.90;;;13.20;99.90;;;;;;5052648;28;20066;-74
2023/04/12 03:17:28;;;;;;;1999.90;999.90;;;13.20;99.90;;;;;;5052704;28;20026;-73
2023/04/12 03:19:54;;;;;;;1999.90;999.90;;;13.20;99.90;;;;;;5052810;28;20021;-73
2023/04/12 03:22:21;;;;;;;1999.90;999.90;;;13.20;99.90;;;;;;5052639;28;20162;-75
2023/04/12 03:24:48;;;;;;;1999.90;999.90;;;13.20;99.90;;;;;;5050561;28;20097;-76
2023/04/12 03:27:14;;;;;;;1999.90;999.90;;;13.20;99.90;;;;;;5052669;28;20053;-72
2023/04/12 03:29:39;;;;;;;1999.90;999.90;;;13.20;99.90;;;;;;5071383;28;20109;-73
2023/04/12 03:32:05;;;;;;;1999.90;999.90;;;13.20;99.90;;;;;;5072549;28;20025;-73
2023/04/12 03:34:31;;;;;;;1999.90;999.90;;;13.10;99.90;;;;;;5072879;28;20361;-73
2023/04/12 03:37:05;;;;;;;1999.90;999.90;;;13.10;99.90;;;;;;5071270;28;20478;-74
2023/04/12 03:39:31;;;;;;;1999.90;999.90;;;13.10;99.90;;;;;;5062265;28;20029;-74
2023/04/12 03:41:56;;;;;;;1999.90;999.90;;;13.10;99.90;;;;;;5055706;28;20035;-76
2023/04/12 03:44:24;;;;;;;1999.90;999.90;;;13.10;99.90;;;;;;5056279;28;20047;-73
2023/04/12 03:46:50;;;;;;;1999.90;999.90;;;13.10;99.90;;;;;;5056479;28;20032;-74
2023/04/12 03:49:16;;;;;;;1999.90;999.90;;;13.10;99.90;;;;;;5056178;28;20037;-76
2023/04/12 03:51:42;;;;;;;1999.90;999.90;;;13.10;99.90;;;;;;5055994;28;20070;-76
2023/04/12 03:54:09;;;;;;;1999.90;999.90;;;13.10;99.90;;;;;;5056103;28;20107;-73
2023/04/12 03:56:35;;;;;;;1999.90;999.90;;;13.00;99.90;;;;;;5056016;28;20040;-73
2023/04/12 03:59:00;;;;;;;1999.90;999.90;;;13.10;99.90;;;;;;5056017;28;20033;-73
2023/04/12 04:01:27;;;;;;;1999.90;999.90;;;13.10;99.90;;;;;;5055825;28;20044;-78
2023/04/12 04:03:52;;;;;;;1999.90;999.90;;;13.10;99.90;;;;;;5056123;28;20039;-73
2023/04/12 04:06:18;;;;;;;1999.90;999.90;;;13.10;99.90;;;;;;5055913;28;20399;-73
2023/04/12 04:08:44;;;;;;;1999.90;999.90;;;13.10;99.90;;;;;;5054198;28;20525;-73
2023/04/12 04:11:11;;;;;;;1999.90;999.90;;;13.20;99.90;;;;;;5055711;28;20032;-77
2023/04/12 04:13:37;;;;;;;1999.90;999.90;;;13.10;99.90;;;;;;5054129;28;20459;-77
2023/04/12 04:16:08;;;;;;;1999.90;999.90;;;13.20;99.90;;;;;;5054168;28;20029;-77
2023/04/12 04:18:34;;;;;;;1999.90;999.90;;;13.10;99.90;;;;;;5054747;28;20021;-72
2023/04/12 04:21:00;;;;;;;1999.90;999.90;;;13.10;99.90;;;;;;5055398;28;20025;-73
2023/04/12 04:23:27;;;;;;;1999.90;999.90;;;13.00;99.90;;;;;;5055463;28;20027;-73
2023/04/12 04:25:53;;;;;;;1999.90;999.90;;;13.00;99.90;;;;;;5054649;28;20074;-74
2023/04/12 04:28:19;;;;;;;1999.90;999.90;;;13.00;99.90;;;;;;5063125;28;20457;-76
2023/04/12 04:30:45;;;;;;;1999.90;999.90;;;12.90;99.90;;;;;;5075433;28;20068;-75
2023/04/12 04:33:18;;;;;;;1999.90;999.90;;;12.80;99.90;;;;;;5066264;28;20019;-73
2023/04/12 04:35:43;;;;;;;;;;;12.80;99.90;;;;;;5054496;28;20059;-74
2023/04/12 04:38:09;;;;;;;1999.90;999.90;;;12.70;99.90;;;;;;5054797;28;19951;-72
2023/04/12 04:40:38;;;;;;;1999.90;999.90;;;12.60;99.90;;;;;;5054496;28;20029;-72
2023/04/12 04:43:04;;;;;;;1999.90;999.90;;;12.60;99.90;;;;;;5054841;28;20025;-74
2023/04/12 04:45:31;;;;;;;1999.90;999.90;;;12.60;99.90;;;;;;5054863;28;20032;-72
2023/04/12 04:47:57;;;;;;;1999.90;999.90;;;12.60;99.90;;;;;;5055209;28;20029;-76
2023/04/12 04:50:23;;;;;;;1999.90;999.90;;;12.60;99.90;;;;;;5054630;28;20135;-73
2023/04/12 04:52:50;;;;;;;1999.90;999.90;;;12.60;99.90;;;;;;5054745;28;20517;-75
2023/04/12 04:55:16;;;;;;;1999.90;999.90;;;12.60;99.90;;;;;;5054443;28;20028;-76
2023/04/12 04:57:42;;;;;;;1999.90;999.90;;;12.60;99.90;;;;;;5054522;28;20036;-72
2023/04/12 05:00:15;;;;;;;1999.90;999.90;;;12.50;99.90;;;;;;5054511;28;20028;-74
2023/04/12 05:02:42;;;;;;;1999.90;999.90;;;12.50;99.90;;;;;;5053459;28;20033;-75
2023/04/12 05:05:17;;;;;;;1999.90;999.90;;;12.50;99.90;;;;;;5054640;28;20029;-78
2023/04/12 05:07:43;;;;;;;1999.90;999.90;;;12.50;99.90;;;;;;5054445;28;20530;-73
2023/04/12 05:10:10;;;;;;;1999.90;999.90;;;12.50;99.90;;;;;;5054175;28;20037;-74
2023/04/12 05:12:36;;;;;;;1999.90;999.90;;;12.50;99.90;;;;;;5054342;28;20396;-73
2023/04/12 05:15:03;;;;;;;1999.90;999.90;;;12.40;99.90;;;;;;5054378;28;20047;-76
2023/04/12 05:17:28;;;;;;;1999.90;999.90;;;12.30;99.90;;;;;;5054179;28;20025;-75
2023/04/12 05:19:54;;;;;;;1999.90;999.90;;;12.20;99.90;;;;;;5053889;28;20028;-76
2023/04/12 05:22:20;;;;;;;1999.90;999.90;;;12.20;99.90;;;;;;5054286;28;20057;-76
2023/04/12 05:24:49;;;;;;;1999.90;999.90;;;12.30;99.90;;;;;;5054120;28;20071;-75
2023/04/12 05:27:15;;;;;;;1999.90;999.90;;;12.20;99.90;;;;;;5053771;28;20518;-73
2023/04/12 05:29:42;;;;;;;1999.90;999.90;;;12.30;99.90;;;;;;5072806;28;20052;-78
2023/04/12 05:32:07;;;;;;;1999.90;999.90;;;12.30;99.90;;;;;;5073394;28;20471;-77
2023/04/12 05:34:33;;;;;;;1999.90;999.90;;;12.30;99.90;;;;;;5066162;28;20079;-75
2023/04/12 05:36:58;;;;;;;1999.90;999.90;;;12.30;99.90;;;;;;5053600;28;20036;-74
2023/04/12 05:39:26;;;;;;;1999.90;999.90;;;12.30;99.90;;;;;;5049615;28;20388;-73
2023/04/12 05:41:51;;;;;;;1999.90;999.90;;;12.30;99.90;;;;;;5047105;28;20036;-78
2023/04/12 05:44:17;;;;;;;1999.90;999.90;;;12.30;99.90;;;;;;5039849;28;20533;-75
2023/04/12 05:46:43;;;;;;;1999.90;999.90;;;12.30;99.90;;;;;;5052706;28;20041;-78
2023/04/12 05:49:08;;;;;;;1999.90;999.90;;;12.30;99.90;;;;;;5052538;28;20048;-79
2023/04/12 05:51:34;;;;;;;1999.90;999.90;;;12.40;99.90;;;;;;5052651;28;20401;-76
2023/04/12 05:54:00;;;;;;;1999.90;999.90;;;12.40;99.90;;;;;;5051178;28;20100;-77
2023/04/12 05:56:26;;;;;;;1999.90;999.90;;;12.40;99.90;;;;;;5067470;28;20028;-78
2023/04/12 05:58:51;;;;;;;1999.90;999.90;;;12.40;99.90;;;;;;5052878;28;20028;-74
2023/04/12 06:01:18;;;;;;;1999.90;999.90;;;12.40;99.90;;;;;;5049298;28;20025;-78
2023/04/12 06:03:45;;;;;;;1999.90;999.90;;;12.40;99.90;;;;;;5052395;28;20032;-76
2023/04/12 06:06:10;;;;;;;1999.90;999.90;;;12.40;99.90;;;;;;5052090;28;20438;-74
2023/04/12 06:08:36;;;;;;;1999.90;999.90;;;12.50;99.90;;;;;;5051852;28;20098;-79
2023/04/12 06:11:03;;;;;;;1999.90;999.90;;;12.40;99.90;;;;;;5051385;28;20520;-80
2023/04/12 06:13:29;;;;;;;1999.90;999.90;;;12.50;99.90;;;;;;5052016;28;20021;-80
2023/04/12 06:15:55;;;;;;;1999.90;999.90;;;12.50;99.90;;;;;;5052566;28;20021;-76
2023/04/12 06:18:20;;;;;;;1999.90;999.90;;;12.50;99.90;;;;;;5050896;28;20388;-74
2023/04/12 06:20:46;;;;;;;1999.90;999.90;;;12.50;99.90;;;;;;5050692;28;20029;-81
2023/04/12 06:23:11;;;;;;;1999.90;999.90;;;12.50;99.90;;;;;;5051814;28;20504;-76
2023/04/12 06:25:37;;;;;;;1999.90;999.90;;;12.50;99.90;;;;;;5051375;28;20086;-73
2023/04/12 06:28:03;;;;;;;1999.90;999.90;;;12.60;99.90;;;;;;5052151;28;20487;-74
2023/04/12 06:30:29;;;;;;;1999.90;999.90;;;12.50;99.90;;;;;;5051646;28;20236;-74
2023/04/12 06:32:55;;;;;;;1999.90;999.90;;;12.60;99.90;;;;;;5052168;28;20017;-72
2023/04/12 06:35:21;;;;;;;1999.90;999.90;;;12.60;99.90;;;;;;5054562;28;20133;-80
2023/04/12 06:37:47;;;;;;;1999.90;999.90;;;12.60;99.90;;;;;;5042538;28;20136;-74
2023/04/12 06:40:12;;;;;;;1999.90;999.90;;;12.60;99.90;;;;;;5044268;28;20090;-75
2023/04/12 06:42:38;;;;;;;1999.90;999.90;;;12.60;99.90;;;;;;5054786;28;20021;-74
2023/04/12 06:45:04;;;;;;;1999.90;999.90;;;12.60;99.90;;;;;;5046888;28;20543;-73
2023/04/12 06:47:31;;;;;;;1999.90;999.90;;;12.50;99.90;;;;;;5051468;28;20029;-79
2023/04/12 06:49:57;;;;;;;1999.90;999.90;;;12.50;99.90;;;;;;5049785;28;20052;-73
2023/04/12 06:52:25;;;;;;;1999.90;999.90;;;12.50;99.90;;;;;;5046420;28;20049;-72
2023/04/12 06:54:52;;;;;;;1999.90;999.90;;;12.50;99.90;;;;;;5050672;28;20037;-73
2023/04/12 06:57:17;;;;;;;1999.90;999.90;;;12.60;99.90;;;;;;5040032;28;20021;-72
2023/04/12 06:59:43;;;;;;;1999.90;999.90;;;12.60;99.90;;;;;;5052420;28;20029;-80
2023/04/12 07:02:09;;;;;;;1999.90;999.90;;;12.50;99.90;;;;;;5052091;28;20108;-72
2023/04/12 07:04:34;;;;;;;1999.90;999.90;;;12.50;99.90;;;;;;5051444;28;20114;-81
2023/04/12 07:07:00;;;;;;;1999.90;999.90;;;12.40;99.90;;;;;;5067314;28;20021;-72
2023/04/12 07:09:26;;;;;;;1999.90;999.90;;;12.40;99.90;;;;;;5050980;28;20033;-72
2023/04/12 07:11:52;;;;;;;1999.90;999.90;;;12.40;99.90;;;;;;5049489;28;20021;-83
2023/04/12 07:14:17;;;;;;;1999.90;999.90;;;12.30;99.90;;;;;;5050722;28;20469;-80
2023/04/12 07:16:43;;;;;;;1999.90;999.90;;;12.30;99.90;;;;;;5049129;28;20037;-73
2023/04/12 07:19:09;;;;;;;1999.90;999.90;;;12.30;99.90;;;;;;5053799;28;20029;-81
2023/04/12 07:21:34;;;;;;;1999.90;999.90;;;12.30;99.90;;;;;;5056708;28;20032;-79
2023/04/12 07:24:00;;;;;;;1999.90;999.90;;;12.20;99.90;;;;;;5053687;28;20025;-79
2023/04/12 07:26:26;;;;;;;1999.90;999.90;;;12.20;99.90;;;;;;5049838;28;20306;-81
2023/04/12 07:28:51;;;;;;;1999.90;999.90;;;12.20;99.90;;;;;;5047172;28;20044;-80
2023/04/12 07:31:17;;;;;;;1999.90;999.90;;;12.50;99.90;;;;;;5051957;28;20074;-80
2023/04/12 07:33:43;;;;;;;1999.90;999.90;;;12.70;99.90;;;;;;5054837;28;20041;-72
2023/04/12 07:36:09;;;;;;;1999.90;999.90;;;12.60;99.90;;;;;;5050878;28;20044;-72
2023/04/12 07:38:35;;;;;;;1999.90;999.90;;;12.60;99.90;;;;;;5054257;28;20133;-79
2023/04/12 07:41:00;;;;;;;1999.90;999.90;;;12.40;99.90;;;;;;5064136;28;20095;-79
2023/04/12 07:43:26;;;;;;;1999.90;999.90;;;12.30;99.90;;;;;;5054263;28;20044;-72
2023/04/12 07:45:55;;;;;;;1999.90;999.90;;;12.20;99.90;;;;;;5053758;28;20056;-73
2023/04/12 07:48:20;;;;;;;1999.90;999.90;;;12.50;99.90;;;;;;5052781;28;20089;-72
2023/04/12 07:50:46;;;;;;;1999.90;999.90;;;13.20;99.90;;;;;;5058223;28;20060;-72
2023/04/12 07:53:18;;;;;;;1999.90;999.90;;;13.40;99.90;;;;;;5055340;28;20033;-79
2023/04/12 07:55:44;;;;;;;1999.90;999.90;;;13.70;99.90;;;;;;5064819;28;20017;-72
2023/04/12 07:58:10;;;;;;;1999.90;999.90;;;14.10;99.90;;;;;;5073491;28;20035;-73
2023/04/12 08:00:35;;;;;;;1999.90;999.90;;;14.00;99.90;;;;;;5056900;28;20025;-72
2023/04/12 08:03:01;;;;;;;1999.90;999.90;;;14.20;99.90;;;;;;5054569;28;20104;-72
2023/04/12 08:05:27;;;;;;;1999.90;999.90;;;14.10;99.90;;;;;;5073337;28;20047;-72
2023/04/12 08:07:52;;;;;;;1999.90;999.90;;;14.20;99.90;;;;;;5068724;28;20039;-79
2023/04/12 08:10:18;;;;;;;1999.90;999.90;;;16.20;99.90;;;;;;5073954;28;20519;-72
2023/04/12 08:12:43;;;;;;;1999.90;999.90;;;16.10;99.90;;;;;;5073466;28;20043;-73
2023/04/12 08:15:09;;;;;;;1999.90;999.90;;;18.00;99.90;;;;;;5062320;28;20392;-73
2023/04/12 08:17:35;;;;;;;1999.90;999.90;;;19.90;99.90;;;;;;5063624;28;20118;-79
2023/04/12 08:20:02;;;;;;;1999.90;999.90;;;20.10;99.90;;;;;;5049576;28;20510;-80
2023/04/12 08:22:28;;;;;;;1999.90;999.90;;;20.80;99.90;;;;;;5064143;28;20511;-81
2023/04/12 08:24:53;;;;;;;1999.90;999.90;;;21.70;99.90;;;;;;5073630;28;20059;-73
2023/04/12 08:27:19;;;;;;;1999.90;999.90;;;21.80;99.90;;;;;;5052659;28;20155;-73
2023/04/12 08:29:45;;;;;;;1999.90;999.90;;;20.00;99.90;;;;;;5065807;28;20037;-73
2023/04/12 08:32:11;;;;;;;1999.90;999.90;;;19.70;99.90;;;;;;5058865;28;20211;-80
2023/04/12 08:34:37;;;;;;;1999.90;999.90;;;20.00;99.90;;;;;;5048275;28;20024;-82
2023/04/12 08:37:03;;;;;;;1999.90;999.90;;;20.40;99.90;;;;;;5061518;28;20032;-81
2023/04/12 08:39:31;;;;;;;1999.90;999.90;;;18.80;99.90;;;;;;5053853;28;20037;-73
2023/04/12 08:41:57;;;;;;;1999.90;999.90;;;17.40;99.90;;;;;;5050134;28;20159;-73
2023/04/12 08:44:38;;;;;;;1999.90;999.90;;;16.10;99.90;;;;;;5053197;28;20124;-73
2023/04/12 08:47:06;;;;;;;1999.90;999.90;;;15.60;99.90;;;;;;5048555;28;20061;-80
2023/04/12 08:49:33;;;;;;;1999.90;999.90;;;14.60;99.90;;;;;;5049014;28;20500;-78
2023/04/12 08:52:07;;;;;;;1999.90;999.90;;;15.90;99.90;;;;;;5052005;28;20029;-73
2023/04/12 08:54:33;;;;;;;1999.90;999.90;;;16.00;99.90;;;;;;5053233;28;20035;-73
2023/04/12 08:57:05;;;;;;;1999.90;999.90;;;14.80;99.90;;;;;;5051617;28;20506;-73
2023/04/12 08:59:34;;;;;;;1999.90;999.90;;;13.60;99.90;;;;;;5053155;28;20463;-78
2023/04/12 09:02:00;;;;;;;1999.90;999.90;;;13.40;99.90;;;;;;5052760;28;20178;-79
2023/04/12 09:04:26;;;;;;;1999.90;999.90;;;14.30;99.90;;;;;;5053423;28;20107;-73
2023/04/12 09:06:51;;;;;;;1999.90;999.90;;;16.50;99.90;;;;;;5052585;28;20108;-80
2023/04/12 09:09:17;;;;;;;1999.90;999.90;;;18.30;99.90;;;;;;5052682;28;20098;-81
2023/04/12 09:11:43;;;;;;;1999.90;999.90;;;18.80;99.90;;;;;;5053297;28;20434;-81
2023/04/12 09:14:23;;;;;;;1999.90;999.90;;;16.70;99.90;;;;;;5053132;28;20024;-80
2023/04/12 09:16:49;;;;;;;1999.90;999.90;;;15.10;99.90;;;;;;5069214;28;20037;-73
2023/04/12 09:19:15;;;;;;;1999.90;999.90;;;14.40;99.90;;;;;;5052662;28;20032;-73
2023/04/12 09:21:55;;;;;;;1999.90;999.90;;;13.20;99.90;;;;;;5042392;28;20029;-72
2023/04/12 09:24:23;;;;;;;1999.90;999.90;;;12.40;99.90;;;;;;5049657;28;20032;-80
2023/04/12 09:27:02;;;;;;;1999.90;999.90;;;11.50;99.90;;;;;;5054740;28;20033;-76
2023/04/12 09:29:29;;;;;;;1999.90;999.90;;;11.20;99.90;;;;;;5052614;28;20029;-76
2023/04/12 09:32:06;;;;;;;1999.90;999.90;;;10.80;99.90;;;;;;5053189;28;20029;-72
2023/04/12 09:34:33;;;;;;;1999.90;999.90;;;10.60;99.90;;;;;;5052263;28;20021;-71
2023/04/12 09:37:13;;;;;;;1999.90;999.90;;;10.70;99.90;;;;;;5051013;28;20029;-77
2023/04/12 09:39:39;;;;;;;1999.90;999.90;;;10.90;99.90;;;;;;5051317;28;20112;-72
2023/04/12 09:42:11;;;;;;;1999.90;999.90;;;11.20;99.90;;;;;;5049999;28;20108;-72
2023/04/12 09:44:38;;;;;;;1999.90;999.90;;;11.40;99.90;;;;;;5046824;28;20025;-71
2023/04/12 09:47:05;;;;;;;1999.90;999.90;;;12.10;99.90;;;;;;5051636;28;20387;-71
2023/04/12 09:49:38;;;;;;;1999.90;999.90;;;11.70;99.90;;;;;;5051424;28;20041;-78
2023/04/12 09:52:06;;;;;;;1999.90;999.90;;;11.60;99.90;;;;;;5051711;28;20049;-76
2023/04/12 09:54:42;;;;;;;1999.90;999.90;;;11.50;99.90;;;;;;5052263;28;20025;-76
2023/04/12 09:57:08;;;;;;;1999.90;999.90;;;11.50;99.90;;;;;;5052190;28;20031;-78
2023/04/12 09:59:39;;;;;;;1999.90;999.90;;;11.90;99.90;;;;;;5052021;28;20021;-72
2023/04/12 10:02:17;;;;;;;1999.90;999.90;;;12.10;99.90;;;;;;5045406;28;20502;-78
2023/04/12 10:04:44;;;;;;;1999.90;999.90;;;12.30;99.90;;;;;;5051630;28;20112;-79
2023/04/12 10:07:10;;;;;;;1999.90;999.90;;;12.40;99.90;;;;;;5054896;28;20793;-78
2023/04/12 10:09:40;;;;;;;1999.90;999.90;;;11.50;99.90;;;;;;5053139;28;20364;-72
2023/04/12 10:12:07;;;;;;;1999.90;999.90;;;11.00;99.90;;;;;;5051078;28;20151;-72
2023/04/12 10:14:33;;;;;;;1999.90;999.90;;;11.10;99.90;;;;;;5050895;28;20037;-78
2023/04/12 10:17:00;;;;;;;1999.90;999.90;;;11.50;99.90;;;;;;5048232;28;20061;-79
2023/04/12 10:19:28;;;;;;;1999.90;999.90;;;11.40;99.90;;;;;;5051080;28;20025;-78
2023/04/12 10:21:55;;;;;;;1999.90;999.90;;;11.50;99.90;;;;;;5053550;28;20113;-72
2023/04/12 10:24:26;;;;;;;1999.90;999.90;;;11.80;99.90;;;;;;5051381;28;20436;-73
2023/04/12 10:26:59;;;;;;;1999.90;999.90;;;12.30;99.90;;;;;;5048641;28;20483;-80
2023/04/12 10:29:25;;;;;;;1999.90;999.90;;;13.40;99.90;;;;;;5061056;28;20094;-80
2023/04/12 10:31:52;;;;;;;1999.90;999.90;;;13.00;99.90;;;;;;5066510;28;20039;-73
2023/04/12 10:34:26;;;;;;;1999.90;999.90;;;12.70;99.90;;;;;;5050981;28;20100;-73
2023/04/12 10:36:58;;;;;;;1999.90;999.90;;;13.00;99.90;;;;;;5047851;28;20384;-73
2023/04/12 10:39:44;;;;;;;1999.90;999.90;;;14.00;99.90;;;;;;5044134;28;20033;-74
2023/04/12 10:42:29;;;;;;;1999.90;999.90;;;14.30;99.90;;;;;;5046264;28;20068;-73
2023/04/12 10:45:16;;;;;;;1999.90;999.90;;;14.60;99.90;;;;;;5042599;28;20021;-81
2023/04/12 10:47:47;;;;;;;1999.90;999.90;;;14.10;99.90;;;;;;5050665;28;20033;-81
2023/04/12 10:50:20;;;;;;;1999.90;999.90;;;14.10;99.90;;;;;;5050160;28;20053;-73
2023/04/12 10:53:14;;;;;;;1999.90;999.90;;;14.10;99.90;;;;;;5050829;28;20398;-73
2023/04/12 10:55:44;;;;;;;1999.90;999.90;;;15.10;99.90;;;;;;5042864;28;20119;-82
2023/04/12 10:58:45;;;;;;;1999.90;999.90;;;15.40;99.90;;;;;;5050411;28;20392;-81
2023/04/12 11:01:11;;;;;;;1999.90;999.90;;;15.00;99.90;;;;;;5043449;28;20037;-81
2023/04/12 11:03:57;;;;;;;1999.90;999.90;;;14.50;99.90;;;;;;5048546;28;20025;-73
2023/04/12 11:07:01;;;;;;;1999.90;999.90;;;14.50;99.90;;;;;;5048056;28;20123;-80
2023/04/12 11:09:32;;;;;;;1999.90;999.90;;;13.90;99.90;;;;;;5037294;28;20032;-81
2023/04/12 11:12:04;;;;;;;1999.90;999.90;;;13.90;99.90;;;;;;5050825;28;20017;-79
2023/04/12 11:14:47;;;;;;;1999.90;999.90;;;14.30;99.90;;;;;;5051415;28;20052;-72
2023/04/12 11:17:16;;;;;;;1999.90;999.90;;;14.10;99.90;;;;;;5053423;28;20071;-72
2023/04/12 11:19:54;;;;;;;1999.90;999.90;;;14.00;99.90;;;;;;5049288;28;20052;-80
2023/04/12 11:22:22;;;;;;;1999.90;999.90;;;14.70;99.90;;;;;;5043589;28;20079;-81
2023/04/12 11:24:53;;;;;;;1999.90;999.90;;;14.70;99.90;;;;;;5050554;28;20048;-72
2023/04/12 11:27:20;;;;;;;1999.90;999.90;;;14.60;99.90;;;;;;5049868;28;20036;-72
2023/04/12 11:29:51;;;;;;;1999.90;999.90;;;14.40;99.90;;;;;;5063219;28;20048;-72
2023/04/12 11:32:17;;;;;;;1999.90;999.90;;;14.10;99.90;;;;;;5070475;28;20104;-80
2023/04/12 11:34:45;;;;;;;1999.90;999.90;;;15.20;99.90;;;;;;5049937;28;20563;-80
2023/04/12 11:37:10;;;;;;;1999.90;999.90;;;15.50;99.90;;;;;;5048501;28;20053;-79
2023/04/12 11:39:43;;;;;;;1999.90;999.90;;;14.80;99.90;;;;;;5050211;28;20083;-79
2023/04/12 11:42:17;;;;;;;1999.90;999.90;;;14.90;99.90;;;;;;5051909;28;20103;-72
2023/04/12 11:44:44;;;;;;;1999.90;999.90;;;15.50;99.90;;;;;;5049016;28;20041;-72
2023/04/12 11:47:17;;;;;;;1999.90;999.90;;;15.20;99.90;;;;;;5050271;28;20083;-80
2023/04/12 11:49:44;;;;;;;1999.90;999.90;;;14.70;99.90;;;;;;5050345;28;20060;-80
2023/04/12 11:52:11;;;;;;;1999.90;999.90;;;15.20;99.90;;;;;;5048671;28;20035;-73
2023/04/12 11:54:37;;;;;;;1999.90;999.90;;;14.90;99.90;;;;;;5046759;28;20124;-73
2023/04/12 11:57:03;;;;;;;1999.90;999.90;;;14.60;99.90;;;;;;5045774;28;20470;-73
2023/04/12 11:59:32;;;;;;;1999.90;999.90;;;14.10;99.90;;;;;;5050351;28;20385;-80
2023/04/12 12:02:00;;;;;;;1999.90;999.90;;;14.10;99.90;;;;;;5051253;28;20060;-80
2023/04/12 12:04:28;;;;;;;1999.90;999.90;;;14.70;99.90;;;;;;5053745;28;20528;-80